sensor_id;sensor_type;location;lat;lon;timestamp;P1;durP1;ratioP1;P2;durP2;ratioP2
45420;SDS011;55462;47.042;8.292;2023-01-28T00:00:27;11.73;;;9.37;;
45420;SDS011;55462;47.042;8.292;2023-01-28T00:02:52;11.43;;;10.03;;
45420;SDS011;55462;47.042;8.292;2023-01-28T00:05:17;9.47;;;7.97;;
45420;SDS011;55462;47.042;8.292;2023-01-28T00:07:42;11.87;;;9.80;;
45420;SDS011;55462;47.042;8.292;2023-01-28T00:10:08;13.13;;;10.13;;
45420;SDS011;55462;47.042;8.292;2023-01-28T00:12:34;11.40;;;10.20;;
45420;SDS011;55462;47.042;8.292;2023-01-28T00:14:59;12.50;;;9.93;;
45420;SDS011;55462;47.042;8.292;2023-01-28T00:17:24;10.80;;;9.13;;
45420;SDS011;55462;47.042;8.292;2023-01-28T00:19:50;14.37;;;10.73;;
45420;SDS011;55462;47.042;8.292;2023-01-28T00:22:15;12.67;;;9.83;;
45420;SDS011;55462;47.042;8.292;2023-01-28T00:24:40;12.27;;;10.00;;
45420;SDS011;55462;47.042;8.292;2023-01-28T00:27:06;13.23;;;10.07;;
45420;SDS011;55462;47.042;8.292;2023-01-28T00:29:31;9.70;;;8.33;;
45420;SDS011;55462;47.042;8.292;2023-01-28T00:31:56;14.50;;;10.10;;
45420;SDS011;55462;47.042;8.292;2023-01-28T00:34:22;11.40;;;9.43;;
45420;SDS011;55462;47.042;8.292;2023-01-28T00:36:47;11.67;;;9.47;;
45420;SDS011;55462;47.042;8.292;2023-01-28T00:39:21;12.90;;;10.10;;
45420;SDS011;55462;47.042;8.292;2023-01-28T00:41:48;13.80;;;11.00;;
45420;SDS011;55462;47.042;8.292;2023-01-28T00:44:13;11.97;;;9.53;;
45420;SDS011;55462;47.042;8.292;2023-01-28T00:46:38;10.97;;;9.00;;
45420;SDS011;55462;47.042;8.292;2023-01-28T00:49:05;11.83;;;9.80;;
45420;SDS011;55462;47.042;8.292;2023-01-28T00:51:31;13.53;;;10.43;;
45420;SDS011;55462;47.042;8.292;2023-01-28T00:53:56;12.37;;;10.20;;
45420;SDS011;55462;47.042;8.292;2023-01-28T00:56:21;11.77;;;10.47;;
45420;SDS011;55462;47.042;8.292;2023-01-28T00:58:47;13.60;;;10.90;;
45420;SDS011;55462;47.042;8.292;2023-01-28T01:01:17;12.63;;;9.73;;
45420;SDS011;55462;47.042;8.292;2023-01-28T01:03:44;11.43;;;9.43;;
45420;SDS011;55462;47.042;8.292;2023-01-28T01:06:10;11.23;;;9.80;;
45420;SDS011;55462;47.042;8.292;2023-01-28T01:08:36;11.23;;;9.73;;
45420;SDS011;55462;47.042;8.292;2023-01-28T01:11:07;12.73;;;10.33;;
45420;SDS011;55462;47.042;8.292;2023-01-28T01:13:33;15.37;;;10.90;;
45420;SDS011;55462;47.042;8.292;2023-01-28T01:16:02;12.00;;;9.80;;
45420;SDS011;55462;47.042;8.292;2023-01-28T01:18:35;12.80;;;10.40;;
45420;SDS011;55462;47.042;8.292;2023-01-28T01:21:00;10.50;;;9.40;;
45420;SDS011;55462;47.042;8.292;2023-01-28T01:23:27;12.40;;;10.17;;
45420;SDS011;55462;47.042;8.292;2023-01-28T01:25:53;11.40;;;10.03;;
45420;SDS011;55462;47.042;8.292;2023-01-28T01:28:18;12.63;;;9.90;;
45420;SDS011;55462;47.042;8.292;2023-01-28T01:30:44;12.10;;;9.70;;
45420;SDS011;55462;47.042;8.292;2023-01-28T01:33:10;11.70;;;10.40;;
45420;SDS011;55462;47.042;8.292;2023-01-28T01:35:36;10.47;;;8.97;;
45420;SDS011;55462;47.042;8.292;2023-01-28T01:38:01;11.07;;;9.83;;
45420;SDS011;55462;47.042;8.292;2023-01-28T01:40:27;14.07;;;9.67;;
45420;SDS011;55462;47.042;8.292;2023-01-28T01:42:53;11.50;;;10.00;;
45420;SDS011;55462;47.042;8.292;2023-01-28T01:45:18;12.77;;;9.73;;
45420;SDS011;55462;47.042;8.292;2023-01-28T01:47:46;11.73;;;10.53;;
45420;SDS011;55462;47.042;8.292;2023-01-28T01:50:30;10.40;;;9.17;;
45420;SDS011;55462;47.042;8.292;2023-01-28T01:53:15;10.90;;;9.73;;
45420;SDS011;55462;47.042;8.292;2023-01-28T01:55:42;10.17;;;9.17;;
45420;SDS011;55462;47.042;8.292;2023-01-28T01:58:13;13.23;;;10.23;;
45420;SDS011;55462;47.042;8.292;2023-01-28T02:00:40;10.70;;;9.37;;
45420;SDS011;55462;47.042;8.292;2023-01-28T02:03:06;11.10;;;9.80;;
45420;SDS011;55462;47.042;8.292;2023-01-28T02:05:33;11.07;;;9.63;;
45420;SDS011;55462;47.042;8.292;2023-01-28T02:07:58;12.60;;;10.37;;
45420;SDS011;55462;47.042;8.292;2023-01-28T02:10:42;11.23;;;9.93;;
45420;SDS011;55462;47.042;8.292;2023-01-28T02:13:08;10.53;;;9.20;;
45420;SDS011;55462;47.042;8.292;2023-01-28T02:15:33;11.33;;;9.60;;
45420;SDS011;55462;47.042;8.292;2023-01-28T02:17:59;11.43;;;9.70;;
45420;SDS011;55462;47.042;8.292;2023-01-28T02:20:24;10.43;;;9.07;;
45420;SDS011;55462;47.042;8.292;2023-01-28T02:23:07;10.10;;;9.10;;
45420;SDS011;55462;47.042;8.292;2023-01-28T02:37:08;11.00;;;9.33;;
45420;SDS011;55462;47.042;8.292;2023-01-28T02:39:43;11.33;;;9.90;;
45420;SDS011;55462;47.042;8.292;2023-01-28T02:42:18;10.37;;;8.97;;
45420;SDS011;55462;47.042;8.292;2023-01-28T02:44:46;10.87;;;9.77;;
45420;SDS011;55462;47.042;8.292;2023-01-28T02:47:12;10.90;;;9.50;;
45420;SDS011;55462;47.042;8.292;2023-01-28T02:49:58;9.80;;;7.67;;
45420;SDS011;55462;47.042;8.292;2023-01-28T02:55:45;10.80;;;9.70;;
45420;SDS011;55462;47.042;8.292;2023-01-28T02:58:34;11.73;;;9.97;;
45420;SDS011;55462;47.042;8.292;2023-01-28T03:06:13;10.20;;;8.97;;
45420;SDS011;55462;47.042;8.292;2023-01-28T03:08:45;10.43;;;8.33;;
45420;SDS011;55462;47.042;8.292;2023-01-28T03:11:33;13.77;;;10.30;;
45420;SDS011;55462;47.042;8.292;2023-01-28T03:14:18;10.80;;;9.20;;
45420;SDS011;55462;47.042;8.292;2023-01-28T03:17:03;10.87;;;9.03;;
45420;SDS011;55462;47.042;8.292;2023-01-28T03:19:48;9.20;;;8.20;;
45420;SDS011;55462;47.042;8.292;2023-01-28T03:22:33;12.80;;;9.60;;
45420;SDS011;55462;47.042;8.292;2023-01-28T03:25:20;11.17;;;9.83;;
45420;SDS011;55462;47.042;8.292;2023-01-28T03:28:07;11.20;;;9.83;;
45420;SDS011;55462;47.042;8.292;2023-01-28T03:30:56;12.60;;;10.67;;
45420;SDS011;55462;47.042;8.292;2023-01-28T03:33:43;13.60;;;10.83;;
45420;SDS011;55462;47.042;8.292;2023-01-28T03:36:27;12.50;;;10.10;;
45420;SDS011;55462;47.042;8.292;2023-01-28T03:39:12;13.57;;;10.83;;
45420;SDS011;55462;47.042;8.292;2023-01-28T03:41:37;12.57;;;11.17;;
45420;SDS011;55462;47.042;8.292;2023-01-28T03:44:03;14.13;;;10.63;;
45420;SDS011;55462;47.042;8.292;2023-01-28T03:46:46;14.33;;;11.23;;
45420;SDS011;55462;47.042;8.292;2023-01-28T03:49:12;14.43;;;11.37;;
45420;SDS011;55462;47.042;8.292;2023-01-28T03:51:39;15.50;;;11.90;;
45420;SDS011;55462;47.042;8.292;2023-01-28T03:54:04;14.37;;;12.07;;
45420;SDS011;55462;47.042;8.292;2023-01-28T03:56:30;14.00;;;11.90;;
45420;SDS011;55462;47.042;8.292;2023-01-28T03:59:02;14.83;;;11.60;;
45420;SDS011;55462;47.042;8.292;2023-01-28T04:01:27;14.07;;;11.87;;
45420;SDS011;55462;47.042;8.292;2023-01-28T04:03:53;15.30;;;11.40;;
45420;SDS011;55462;47.042;8.292;2023-01-28T04:06:18;13.57;;;10.53;;
45420;SDS011;55462;47.042;8.292;2023-01-28T04:08:43;14.03;;;12.03;;
45420;SDS011;55462;47.042;8.292;2023-01-28T04:11:13;15.97;;;12.40;;
45420;SDS011;55462;47.042;8.292;2023-01-28T04:13:43;13.97;;;12.40;;
45420;SDS011;55462;47.042;8.292;2023-01-28T04:16:10;14.43;;;11.63;;
45420;SDS011;55462;47.042;8.292;2023-01-28T04:18:35;17.53;;;13.43;;
45420;SDS011;55462;47.042;8.292;2023-01-28T04:21:01;13.20;;;11.00;;
45420;SDS011;55462;47.042;8.292;2023-01-28T04:23:26;15.77;;;12.37;;
45420;SDS011;55462;47.042;8.292;2023-01-28T04:25:53;15.70;;;12.17;;
45420;SDS011;55462;47.042;8.292;2023-01-28T04:28:19;15.47;;;12.53;;
45420;SDS011;55462;47.042;8.292;2023-01-28T04:30:44;15.33;;;12.43;;
45420;SDS011;55462;47.042;8.292;2023-01-28T04:33:09;16.80;;;13.27;;
45420;SDS011;55462;47.042;8.292;2023-01-28T04:35:34;16.03;;;13.17;;
45420;SDS011;55462;47.042;8.292;2023-01-28T04:38:00;17.63;;;13.20;;
45420;SDS011;55462;47.042;8.292;2023-01-28T04:40:25;16.47;;;12.53;;
45420;SDS011;55462;47.042;8.292;2023-01-28T04:42:54;17.37;;;14.30;;
45420;SDS011;55462;47.042;8.292;2023-01-28T04:45:20;17.17;;;13.30;;
45420;SDS011;55462;47.042;8.292;2023-01-28T04:47:45;17.53;;;14.13;;
45420;SDS011;55462;47.042;8.292;2023-01-28T04:50:11;17.63;;;13.17;;
45420;SDS011;55462;47.042;8.292;2023-01-28T04:52:36;18.43;;;13.43;;
45420;SDS011;55462;47.042;8.292;2023-01-28T04:55:01;17.90;;;13.23;;
45420;SDS011;55462;47.042;8.292;2023-01-28T04:57:27;18.00;;;14.03;;
45420;SDS011;55462;47.042;8.292;2023-01-28T04:59:52;17.73;;;13.47;;
45420;SDS011;55462;47.042;8.292;2023-01-28T05:02:18;17.97;;;13.43;;
45420;SDS011;55462;47.042;8.292;2023-01-28T05:04:43;16.67;;;13.37;;
45420;SDS011;55462;47.042;8.292;2023-01-28T05:07:08;16.67;;;13.07;;
45420;SDS011;55462;47.042;8.292;2023-01-28T05:09:34;17.13;;;13.70;;
45420;SDS011;55462;47.042;8.292;2023-01-28T05:11:59;15.53;;;12.90;;
45420;SDS011;55462;47.042;8.292;2023-01-28T05:14:24;18.23;;;13.37;;
45420;SDS011;55462;47.042;8.292;2023-01-28T05:16:50;17.03;;;13.97;;
45420;SDS011;55462;47.042;8.292;2023-01-28T05:19:15;14.80;;;12.77;;
45420;SDS011;55462;47.042;8.292;2023-01-28T05:21:40;17.53;;;13.03;;
45420;SDS011;55462;47.042;8.292;2023-01-28T05:24:06;18.90;;;14.40;;
45420;SDS011;55462;47.042;8.292;2023-01-28T05:26:31;18.50;;;13.80;;
45420;SDS011;55462;47.042;8.292;2023-01-28T05:28:56;15.50;;;13.17;;
45420;SDS011;55462;47.042;8.292;2023-01-28T05:31:22;15.50;;;12.90;;
45420;SDS011;55462;47.042;8.292;2023-01-28T05:33:47;16.90;;;13.33;;
45420;SDS011;55462;47.042;8.292;2023-01-28T05:36:12;14.93;;;13.13;;
45420;SDS011;55462;47.042;8.292;2023-01-28T05:38:38;16.90;;;13.43;;
45420;SDS011;55462;47.042;8.292;2023-01-28T05:41:03;16.50;;;13.40;;
45420;SDS011;55462;47.042;8.292;2023-01-28T05:43:28;15.53;;;13.07;;
45420;SDS011;55462;47.042;8.292;2023-01-28T05:45:54;16.40;;;13.23;;
45420;SDS011;55462;47.042;8.292;2023-01-28T05:48:19;15.17;;;12.10;;
45420;SDS011;55462;47.042;8.292;2023-01-28T05:50:47;16.80;;;12.40;;
45420;SDS011;55462;47.042;8.292;2023-01-28T05:53:13;14.50;;;12.53;;
45420;SDS011;55462;47.042;8.292;2023-01-28T05:55:38;14.93;;;12.77;;
45420;SDS011;55462;47.042;8.292;2023-01-28T05:58:04;14.07;;;12.20;;
45420;SDS011;55462;47.042;8.292;2023-01-28T06:00:29;15.43;;;12.27;;
45420;SDS011;55462;47.042;8.292;2023-01-28T06:02:54;15.97;;;12.67;;
45420;SDS011;55462;47.042;8.292;2023-01-28T06:05:20;15.07;;;12.60;;
45420;SDS011;55462;47.042;8.292;2023-01-28T06:07:45;17.03;;;12.67;;
45420;SDS011;55462;47.042;8.292;2023-01-28T06:10:11;13.20;;;11.73;;
45420;SDS011;55462;47.042;8.292;2023-01-28T06:12:37;14.70;;;12.57;;
45420;SDS011;55462;47.042;8.292;2023-01-28T06:15:02;14.97;;;12.07;;
45420;SDS011;55462;47.042;8.292;2023-01-28T06:17:28;14.30;;;11.70;;
45420;SDS011;55462;47.042;8.292;2023-01-28T06:19:53;13.90;;;11.63;;
45420;SDS011;55462;47.042;8.292;2023-01-28T06:22:18;15.07;;;12.50;;
45420;SDS011;55462;47.042;8.292;2023-01-28T06:24:44;15.50;;;12.53;;
45420;SDS011;55462;47.042;8.292;2023-01-28T06:27:09;13.07;;;11.67;;
45420;SDS011;55462;47.042;8.292;2023-01-28T06:29:34;13.07;;;11.73;;
45420;SDS011;55462;47.042;8.292;2023-01-28T06:32:00;15.17;;;11.40;;
45420;SDS011;55462;47.042;8.292;2023-01-28T06:34:25;14.97;;;13.20;;
45420;SDS011;55462;47.042;8.292;2023-01-28T06:36:50;13.57;;;12.17;;
45420;SDS011;55462;47.042;8.292;2023-01-28T06:39:17;13.00;;;11.67;;
45420;SDS011;55462;47.042;8.292;2023-01-28T06:41:45;12.93;;;11.53;;
45420;SDS011;55462;47.042;8.292;2023-01-28T06:44:10;13.23;;;11.73;;
45420;SDS011;55462;47.042;8.292;2023-01-28T06:46:35;13.63;;;11.50;;
45420;SDS011;55462;47.042;8.292;2023-01-28T06:49:01;15.30;;;12.17;;
45420;SDS011;55462;47.042;8.292;2023-01-28T06:51:26;13.30;;;11.50;;
45420;SDS011;55462;47.042;8.292;2023-01-28T06:53:51;14.00;;;12.03;;
45420;SDS011;55462;47.042;8.292;2023-01-28T06:56:17;14.67;;;11.60;;
45420;SDS011;55462;47.042;8.292;2023-01-28T06:58:42;14.80;;;11.40;;
45420;SDS011;55462;47.042;8.292;2023-01-28T07:01:07;14.43;;;11.97;;
45420;SDS011;55462;47.042;8.292;2023-01-28T07:03:33;15.40;;;12.00;;
45420;SDS011;55462;47.042;8.292;2023-01-28T07:05:58;13.10;;;11.70;;
45420;SDS011;55462;47.042;8.292;2023-01-28T07:08:23;12.43;;;11.13;;
45420;SDS011;55462;47.042;8.292;2023-01-28T07:10:49;14.20;;;12.53;;
45420;SDS011;55462;47.042;8.292;2023-01-28T07:13:14;13.47;;;11.47;;
45420;SDS011;55462;47.042;8.292;2023-01-28T07:15:39;12.57;;;10.70;;
45420;SDS011;55462;47.042;8.292;2023-01-28T07:18:05;12.50;;;10.17;;
45420;SDS011;55462;47.042;8.292;2023-01-28T07:20:30;14.00;;;11.47;;
45420;SDS011;55462;47.042;8.292;2023-01-28T07:22:56;12.27;;;10.87;;
45420;SDS011;55462;47.042;8.292;2023-01-28T07:25:21;12.93;;;11.03;;
45420;SDS011;55462;47.042;8.292;2023-01-28T07:27:48;14.07;;;11.80;;
45420;SDS011;55462;47.042;8.292;2023-01-28T07:30:15;13.27;;;10.77;;
45420;SDS011;55462;47.042;8.292;2023-01-28T07:32:41;12.53;;;11.17;;
45420;SDS011;55462;47.042;8.292;2023-01-28T07:35:06;11.97;;;10.77;;
45420;SDS011;55462;47.042;8.292;2023-01-28T07:37:32;12.57;;;11.17;;
45420;SDS011;55462;47.042;8.292;2023-01-28T07:39:57;14.57;;;11.03;;
45420;SDS011;55462;47.042;8.292;2023-01-28T07:42:22;13.03;;;11.17;;
45420;SDS011;55462;47.042;8.292;2023-01-28T07:44:48;14.83;;;11.87;;
45420;SDS011;55462;47.042;8.292;2023-01-28T07:47:13;13.90;;;11.87;;
45420;SDS011;55462;47.042;8.292;2023-01-28T07:49:39;13.07;;;11.30;;
45420;SDS011;55462;47.042;8.292;2023-01-28T07:52:04;14.37;;;12.03;;
45420;SDS011;55462;47.042;8.292;2023-01-28T07:54:30;12.70;;;11.33;;
45420;SDS011;55462;47.042;8.292;2023-01-28T07:56:56;12.43;;;10.97;;
45420;SDS011;55462;47.042;8.292;2023-01-28T07:59:21;13.40;;;11.70;;
45420;SDS011;55462;47.042;8.292;2023-01-28T08:01:46;14.97;;;12.27;;
45420;SDS011;55462;47.042;8.292;2023-01-28T08:04:12;14.00;;;11.70;;
45420;SDS011;55462;47.042;8.292;2023-01-28T08:06:37;13.87;;;11.40;;
45420;SDS011;55462;47.042;8.292;2023-01-28T08:09:06;14.73;;;11.50;;
45420;SDS011;55462;47.042;8.292;2023-01-28T08:11:32;12.47;;;10.53;;
45420;SDS011;55462;47.042;8.292;2023-01-28T08:14:00;12.70;;;10.87;;
45420;SDS011;55462;47.042;8.292;2023-01-28T08:16:25;13.40;;;11.30;;
45420;SDS011;55462;47.042;8.292;2023-01-28T08:18:51;13.07;;;11.40;;
45420;SDS011;55462;47.042;8.292;2023-01-28T08:21:17;12.80;;;11.10;;
45420;SDS011;55462;47.042;8.292;2023-01-28T08:23:42;13.03;;;11.23;;
45420;SDS011;55462;47.042;8.292;2023-01-28T08:26:07;16.10;;;11.70;;
45420;SDS011;55462;47.042;8.292;2023-01-28T08:28:33;13.00;;;11.03;;
45420;SDS011;55462;47.042;8.292;2023-01-28T08:30:59;13.40;;;12.03;;
45420;SDS011;55462;47.042;8.292;2023-01-28T08:33:25;13.83;;;11.23;;
45420;SDS011;55462;47.042;8.292;2023-01-28T08:35:50;13.33;;;11.50;;
45420;SDS011;55462;47.042;8.292;2023-01-28T08:38:15;13.10;;;11.67;;
45420;SDS011;55462;47.042;8.292;2023-01-28T08:40:41;12.87;;;10.57;;
45420;SDS011;55462;47.042;8.292;2023-01-28T08:43:07;12.87;;;11.43;;
45420;SDS011;55462;47.042;8.292;2023-01-28T08:45:32;13.00;;;11.63;;
45420;SDS011;55462;47.042;8.292;2023-01-28T08:47:59;11.20;;;10.00;;
45420;SDS011;55462;47.042;8.292;2023-01-28T08:50:29;12.63;;;11.33;;
45420;SDS011;55462;47.042;8.292;2023-01-28T08:53:00;12.20;;;10.83;;
45420;SDS011;55462;47.042;8.292;2023-01-28T08:55:28;11.87;;;10.57;;
45420;SDS011;55462;47.042;8.292;2023-01-28T08:57:53;12.73;;;10.50;;
45420;SDS011;55462;47.042;8.292;2023-01-28T09:00:19;13.00;;;11.20;;
45420;SDS011;55462;47.042;8.292;2023-01-28T09:02:44;11.03;;;9.47;;
45420;SDS011;55462;47.042;8.292;2023-01-28T09:05:10;12.27;;;11.07;;
45420;SDS011;55462;47.042;8.292;2023-01-28T09:07:35;11.53;;;10.27;;
45420;SDS011;55462;47.042;8.292;2023-01-28T09:10:02;10.60;;;9.50;;
45420;SDS011;55462;47.042;8.292;2023-01-28T09:12:28;11.00;;;9.53;;
45420;SDS011;55462;47.042;8.292;2023-01-28T09:14:53;11.73;;;10.53;;
45420;SDS011;55462;47.042;8.292;2023-01-28T09:17:19;11.93;;;10.43;;
45420;SDS011;55462;47.042;8.292;2023-01-28T09:19:45;11.90;;;10.70;;
45420;SDS011;55462;47.042;8.292;2023-01-28T09:22:10;10.77;;;9.67;;
45420;SDS011;55462;47.042;8.292;2023-01-28T09:24:35;11.63;;;10.00;;
45420;SDS011;55462;47.042;8.292;2023-01-28T09:27:01;11.80;;;10.23;;
45420;SDS011;55462;47.042;8.292;2023-01-28T09:29:26;12.03;;;10.40;;
45420;SDS011;55462;47.042;8.292;2023-01-28T09:31:51;12.23;;;10.37;;
45420;SDS011;55462;47.042;8.292;2023-01-28T09:34:17;11.97;;;10.13;;
45420;SDS011;55462;47.042;8.292;2023-01-28T09:36:42;12.33;;;10.77;;
45420;SDS011;55462;47.042;8.292;2023-01-28T09:39:07;11.77;;;10.57;;
45420;SDS011;55462;47.042;8.292;2023-01-28T09:46:32;11.57;;;10.37;;
45420;SDS011;55462;47.042;8.292;2023-01-28T09:48:58;10.83;;;9.73;;
45420;SDS011;55462;47.042;8.292;2023-01-28T09:51:28;11.23;;;10.13;;
45420;SDS011;55462;47.042;8.292;2023-01-28T09:54:11;13.03;;;10.37;;
45420;SDS011;55462;47.042;8.292;2023-01-28T09:56:44;10.80;;;9.70;;
45420;SDS011;55462;47.042;8.292;2023-01-28T09:59:16;11.10;;;9.53;;
45420;SDS011;55462;47.042;8.292;2023-01-28T10:01:52;10.93;;;9.20;;
45420;SDS011;55462;47.042;8.292;2023-01-28T10:04:31;10.97;;;9.90;;
45420;SDS011;55462;47.042;8.292;2023-01-28T10:09:47;14.83;;;9.80;;
45420;SDS011;55462;47.042;8.292;2023-01-28T10:12:38;11.77;;;9.43;;
45420;SDS011;55462;47.042;8.292;2023-01-28T10:17:46;13.40;;;9.27;;
45420;SDS011;55462;47.042;8.292;2023-01-28T10:22:55;10.80;;;9.00;;
45420;SDS011;55462;47.042;8.292;2023-01-28T10:25:27;10.83;;;9.73;;
45420;SDS011;55462;47.042;8.292;2023-01-28T10:27:54;11.37;;;9.53;;
45420;SDS011;55462;47.042;8.292;2023-01-28T10:30:23;11.00;;;9.40;;
45420;SDS011;55462;47.042;8.292;2023-01-28T10:32:51;11.47;;;9.23;;
45420;SDS011;55462;47.042;8.292;2023-01-28T10:35:18;10.30;;;9.17;;
45420;SDS011;55462;47.042;8.292;2023-01-28T10:37:44;9.50;;;8.60;;
45420;SDS011;55462;47.042;8.292;2023-01-28T10:40:16;12.03;;;9.47;;
45420;SDS011;55462;47.042;8.292;2023-01-28T10:42:42;9.50;;;8.50;;
45420;SDS011;55462;47.042;8.292;2023-01-28T10:45:25;10.73;;;8.87;;
45420;SDS011;55462;47.042;8.292;2023-01-28T10:50:57;9.90;;;8.37;;
45420;SDS011;55462;47.042;8.292;2023-01-28T10:53:39;11.53;;;9.00;;
45420;SDS011;55462;47.042;8.292;2023-01-28T10:56:09;11.13;;;9.47;;
45420;SDS011;55462;47.042;8.292;2023-01-28T10:58:46;8.83;;;7.93;;
45420;SDS011;55462;47.042;8.292;2023-01-28T11:01:14;13.00;;;9.83;;
45420;SDS011;55462;47.042;8.292;2023-01-28T11:03:40;10.00;;;9.00;;
45420;SDS011;55462;47.042;8.292;2023-01-28T11:06:22;9.03;;;8.13;;
45420;SDS011;55462;47.042;8.292;2023-01-28T11:08:49;9.90;;;8.90;;
45420;SDS011;55462;47.042;8.292;2023-01-28T11:11:14;10.63;;;9.53;;
45420;SDS011;55462;47.042;8.292;2023-01-28T11:13:48;10.03;;;8.93;;
45420;SDS011;55462;47.042;8.292;2023-01-28T11:16:15;10.77;;;9.10;;
45420;SDS011;55462;47.042;8.292;2023-01-28T11:18:54;9.83;;;8.67;;
45420;SDS011;55462;47.042;8.292;2023-01-28T11:21:25;9.03;;;8.03;;
45420;SDS011;55462;47.042;8.292;2023-01-28T11:23:53;11.53;;;8.63;;
45420;SDS011;55462;47.042;8.292;2023-01-28T11:26:21;9.73;;;8.40;;
45420;SDS011;55462;47.042;8.292;2023-01-28T11:28:48;10.37;;;8.47;;
45420;SDS011;55462;47.042;8.292;2023-01-28T11:31:15;10.93;;;8.93;;
45420;SDS011;55462;47.042;8.292;2023-01-28T11:33:43;10.10;;;8.60;;
45420;SDS011;55462;47.042;8.292;2023-01-28T11:36:12;9.63;;;8.53;;
45420;SDS011;55462;47.042;8.292;2023-01-28T11:41:18;9.77;;;8.77;;
45420;SDS011;55462;47.042;8.292;2023-01-28T11:43:54;9.60;;;8.60;;
45420;SDS011;55462;47.042;8.292;2023-01-28T11:48:49;9.73;;;8.63;;
45420;SDS011;55462;47.042;8.292;2023-01-28T11:54:27;9.93;;;8.30;;
45420;SDS011;55462;47.042;8.292;2023-01-28T11:57:00;10.00;;;8.57;;
45420;SDS011;55462;47.042;8.292;2023-01-28T12:05:00;9.70;;;8.63;;
45420;SDS011;55462;47.042;8.292;2023-01-28T12:13:24;10.77;;;9.20;;
45420;SDS011;55462;47.042;8.292;2023-01-28T12:16:05;9.67;;;8.50;;
45420;SDS011;55462;47.042;8.292;2023-01-28T12:24:32;24.13;;;10.00;;
45420;SDS011;55462;47.042;8.292;2023-01-28T12:27:15;10.43;;;9.10;;
45420;SDS011;55462;47.042;8.292;2023-01-28T12:39:00;10.37;;;9.27;;
45420;SDS011;55462;47.042;8.292;2023-01-28T12:41:35;10.70;;;9.17;;
45420;SDS011;55462;47.042;8.292;2023-01-28T12:44:04;11.13;;;8.47;;
45420;SDS011;55462;47.042;8.292;2023-01-28T12:49:23;12.80;;;10.03;;
45420;SDS011;55462;47.042;8.292;2023-01-28T12:51:58;11.80;;;9.73;;
45420;SDS011;55462;47.042;8.292;2023-01-28T12:57:00;10.50;;;9.30;;
45420;SDS011;55462;47.042;8.292;2023-01-28T13:02:00;11.13;;;10.00;;
45420;SDS011;55462;47.042;8.292;2023-01-28T13:10:21;10.80;;;9.37;;
45420;SDS011;55462;47.042;8.292;2023-01-28T13:12:49;11.63;;;9.87;;
45420;SDS011;55462;47.042;8.292;2023-01-28T13:15:15;12.37;;;9.50;;
45420;SDS011;55462;47.042;8.292;2023-01-28T13:17:52;11.93;;;9.57;;
45420;SDS011;55462;47.042;8.292;2023-01-28T13:20:36;9.77;;;8.60;;
45420;SDS011;55462;47.042;8.292;2023-01-28T13:23:22;11.63;;;9.37;;
45420;SDS011;55462;47.042;8.292;2023-01-28T13:25:54;10.63;;;9.37;;
45420;SDS011;55462;47.042;8.292;2023-01-28T13:28:30;10.53;;;8.70;;
45420;SDS011;55462;47.042;8.292;2023-01-28T13:31:00;11.33;;;9.47;;
45420;SDS011;55462;47.042;8.292;2023-01-28T13:33:31;10.73;;;9.60;;
45420;SDS011;55462;47.042;8.292;2023-01-28T13:36:00;10.83;;;9.67;;
45420;SDS011;55462;47.042;8.292;2023-01-28T13:38:40;11.13;;;9.30;;
45420;SDS011;55462;47.042;8.292;2023-01-28T13:41:05;12.17;;;9.30;;
45420;SDS011;55462;47.042;8.292;2023-01-28T13:45:57;12.97;;;9.70;;
45420;SDS011;55462;47.042;8.292;2023-01-28T13:48:30;10.07;;;9.07;;
45420;SDS011;55462;47.042;8.292;2023-01-28T13:50:57;12.30;;;10.17;;
45420;SDS011;55462;47.042;8.292;2023-01-28T13:53:35;10.90;;;9.30;;
45420;SDS011;55462;47.042;8.292;2023-01-28T13:56:07;10.90;;;9.80;;
45420;SDS011;55462;47.042;8.292;2023-01-28T14:01:18;10.07;;;9.03;;
45420;SDS011;55462;47.042;8.292;2023-01-28T14:07:02;12.27;;;9.63;;
45420;SDS011;55462;47.042;8.292;2023-01-28T14:09:54;13.27;;;10.27;;
45420;SDS011;55462;47.042;8.292;2023-01-28T14:17:48;10.53;;;9.40;;
45420;SDS011;55462;47.042;8.292;2023-01-28T14:20:19;10.37;;;9.27;;
45420;SDS011;55462;47.042;8.292;2023-01-28T14:22:46;10.70;;;9.40;;
45420;SDS011;55462;47.042;8.292;2023-01-28T14:25:17;10.90;;;9.37;;
45420;SDS011;55462;47.042;8.292;2023-01-28T14:27:49;9.70;;;8.70;;
45420;SDS011;55462;47.042;8.292;2023-01-28T14:32:50;10.53;;;9.43;;
45420;SDS011;55462;47.042;8.292;2023-01-28T14:35:18;12.17;;;10.13;;
45420;SDS011;55462;47.042;8.292;2023-01-28T14:37:49;10.60;;;9.40;;
45420;SDS011;55462;47.042;8.292;2023-01-28T14:40:15;11.50;;;9.73;;
45420;SDS011;55462;47.042;8.292;2023-01-28T14:42:42;11.07;;;9.47;;
45420;SDS011;55462;47.042;8.292;2023-01-28T14:45:20;10.10;;;8.93;;
45420;SDS011;55462;47.042;8.292;2023-01-28T14:47:49;10.20;;;9.07;;
45420;SDS011;55462;47.042;8.292;2023-01-28T14:53:23;10.13;;;8.97;;
45420;SDS011;55462;47.042;8.292;2023-01-28T14:58:35;9.27;;;8.27;;
45420;SDS011;55462;47.042;8.292;2023-01-28T15:01:02;11.10;;;8.60;;
45420;SDS011;55462;47.042;8.292;2023-01-28T15:03:27;10.07;;;8.27;;
45420;SDS011;55462;47.042;8.292;2023-01-28T15:06:29;8.53;;;7.63;;
45420;SDS011;55462;47.042;8.292;2023-01-28T15:08:49;9.70;;;8.70;;
45420;SDS011;55462;47.042;8.292;2023-01-28T15:11:17;11.17;;;9.10;;
45420;SDS011;55462;47.042;8.292;2023-01-28T15:13:45;14.13;;;8.93;;
45420;SDS011;55462;47.042;8.292;2023-01-28T15:16:15;13.57;;;9.50;;
45420;SDS011;55462;47.042;8.292;2023-01-28T15:18:43;9.10;;;8.20;;
45420;SDS011;55462;47.042;8.292;2023-01-28T15:21:09;11.80;;;9.00;;
45420;SDS011;55462;47.042;8.292;2023-01-28T15:23:35;9.60;;;8.40;;
45420;SDS011;55462;47.042;8.292;2023-01-28T15:26:18;10.80;;;9.00;;
45420;SDS011;55462;47.042;8.292;2023-01-28T15:28:46;11.37;;;9.20;;
45420;SDS011;55462;47.042;8.292;2023-01-28T15:31:19;9.83;;;8.83;;
45420;SDS011;55462;47.042;8.292;2023-01-28T15:36:26;12.43;;;9.33;;
45420;SDS011;55462;47.042;8.292;2023-01-28T15:38:53;11.83;;;9.87;;
45420;SDS011;55462;47.042;8.292;2023-01-28T15:41:20;10.67;;;9.07;;
45420;SDS011;55462;47.042;8.292;2023-01-28T15:43:48;11.70;;;8.40;;
45420;SDS011;55462;47.042;8.292;2023-01-28T15:46:14;11.33;;;9.40;;
45420;SDS011;55462;47.042;8.292;2023-01-28T15:48:41;11.77;;;9.10;;
45420;SDS011;55462;47.042;8.292;2023-01-28T15:51:15;10.50;;;9.27;;
45420;SDS011;55462;47.042;8.292;2023-01-28T15:53:43;9.13;;;7.97;;
45420;SDS011;55462;47.042;8.292;2023-01-28T15:56:11;10.37;;;8.67;;
45420;SDS011;55462;47.042;8.292;2023-01-28T15:58:37;9.90;;;8.83;;
45420;SDS011;55462;47.042;8.292;2023-01-28T16:01:11;11.10;;;9.63;;
45420;SDS011;55462;47.042;8.292;2023-01-28T16:03:39;11.33;;;9.40;;
45420;SDS011;55462;47.042;8.292;2023-01-28T16:08:38;11.53;;;9.60;;
45420;SDS011;55462;47.042;8.292;2023-01-28T16:11:20;11.03;;;9.10;;
45420;SDS011;55462;47.042;8.292;2023-01-28T16:14:26;12.17;;;9.47;;
45420;SDS011;55462;47.042;8.292;2023-01-28T16:16:53;10.80;;;9.37;;
45420;SDS011;55462;47.042;8.292;2023-01-28T16:19:41;13.37;;;9.20;;
45420;SDS011;55462;47.042;8.292;2023-01-28T16:22:06;10.43;;;8.60;;
45420;SDS011;55462;47.042;8.292;2023-01-28T16:24:33;11.00;;;9.73;;
45420;SDS011;55462;47.042;8.292;2023-01-28T16:27:06;12.97;;;9.60;;
45420;SDS011;55462;47.042;8.292;2023-01-28T16:29:46;11.40;;;10.20;;